Terminal Aerodrome Forecast
Issued by NWS Albany, NY

Home | Current Version | Previous Version | Text Only | Print | Product List | Glossary On
Versions: 1 2 3 4 5 6 7 8 9 10 11 12 13 14 15 16 17 18 19 20 21 22 23 24 25 26 27 28 29 30 31 32 33 34 35 36 37 38 39
000
FTUS41 KALY 231700
TAFALB
TAF
KALB 231725Z 2318/2418 36010G15KT 6SM -DZ BR SCT008 OVC015
      TEMPO 2318/2320 4SM -RA BR BKN008 OVC015
     FM240400 34009KT 5SM -DZ SCT008 BKN015 OVC025
     FM241300 32011KT P6SM VCSH BKN025 OVC035=

USA.gov is the U.S. government's official web portal to all federal, state and local government web resources and services.